sensor_id;sensor_type;location;lat;lon;timestamp;P1;durP1;ratioP1;P2;durP2;ratioP2
1402;SDS011;696;48.546;9.896;2023-07-29T00:00:19;1.88;;;1.13;;
1402;SDS011;696;48.546;9.896;2023-07-29T00:02:44;2.00;;;0.95;;
1402;SDS011;696;48.546;9.896;2023-07-29T00:05:10;0.57;;;0.55;;
1402;SDS011;696;48.546;9.896;2023-07-29T00:07:36;3.83;;;1.10;;
1402;SDS011;696;48.546;9.896;2023-07-29T00:10:01;2.08;;;0.85;;
1402;SDS011;696;48.546;9.896;2023-07-29T00:12:27;4.75;;;0.65;;
1402;SDS011;696;48.546;9.896;2023-07-29T00:14:52;1.75;;;0.80;;
1402;SDS011;696;48.546;9.896;2023-07-29T00:17:18;5.07;;;1.20;;
1402;SDS011;696;48.546;9.896;2023-07-29T00:19:45;1.23;;;0.85;;
1402;SDS011;696;48.546;9.896;2023-07-29T00:22:10;1.98;;;0.95;;
1402;SDS011;696;48.546;9.896;2023-07-29T00:24:36;0.50;;;0.50;;
1402;SDS011;696;48.546;9.896;2023-07-29T00:27:01;1.13;;;0.80;;
1402;SDS011;696;48.546;9.896;2023-07-29T00:29:26;3.22;;;0.75;;
1402;SDS011;696;48.546;9.896;2023-07-29T00:31:52;1.25;;;0.82;;
1402;SDS011;696;48.546;9.896;2023-07-29T00:34:17;0.63;;;0.63;;
1402;SDS011;696;48.546;9.896;2023-07-29T00:36:44;1.52;;;1.17;;
1402;SDS011;696;48.546;9.896;2023-07-29T00:39:12;1.00;;;0.80;;
1402;SDS011;696;48.546;9.896;2023-07-29T00:41:38;1.38;;;0.90;;
1402;SDS011;696;48.546;9.896;2023-07-29T00:44:03;1.50;;;0.93;;
1402;SDS011;696;48.546;9.896;2023-07-29T00:46:28;1.73;;;0.95;;
1402;SDS011;696;48.546;9.896;2023-07-29T00:48:54;3.00;;;1.00;;
1402;SDS011;696;48.546;9.896;2023-07-29T00:51:20;0.85;;;0.60;;
1402;SDS011;696;48.546;9.896;2023-07-29T00:53:45;1.65;;;1.10;;
1402;SDS011;696;48.546;9.896;2023-07-29T00:56:11;1.15;;;0.85;;
1402;SDS011;696;48.546;9.896;2023-07-29T00:58:36;0.63;;;0.63;;
1402;SDS011;696;48.546;9.896;2023-07-29T01:01:02;1.30;;;1.20;;
1402;SDS011;696;48.546;9.896;2023-07-29T01:03:27;1.35;;;1.13;;
1402;SDS011;696;48.546;9.896;2023-07-29T01:05:59;1.10;;;1.00;;
1402;SDS011;696;48.546;9.896;2023-07-29T01:08:43;1.83;;;1.25;;
1402;SDS011;696;48.546;9.896;2023-07-29T01:14:04;1.63;;;1.00;;
1402;SDS011;696;48.546;9.896;2023-07-29T01:16:42;1.90;;;0.90;;
1402;SDS011;696;48.546;9.896;2023-07-29T01:19:20;3.05;;;1.52;;
1402;SDS011;696;48.546;9.896;2023-07-29T01:22:08;1.35;;;0.98;;
1402;SDS011;696;48.546;9.896;2023-07-29T01:24:35;1.10;;;1.00;;
1402;SDS011;696;48.546;9.896;2023-07-29T01:27:01;1.67;;;1.25;;
1402;SDS011;696;48.546;9.896;2023-07-29T01:29:30;4.13;;;2.35;;
1402;SDS011;696;48.546;9.896;2023-07-29T01:31:55;4.60;;;2.40;;
1402;SDS011;696;48.546;9.896;2023-07-29T01:34:24;6.40;;;2.63;;
1402;SDS011;696;48.546;9.896;2023-07-29T01:36:51;5.50;;;2.53;;
1402;SDS011;696;48.546;9.896;2023-07-29T01:39:18;4.47;;;2.70;;
1402;SDS011;696;48.546;9.896;2023-07-29T01:41:47;3.42;;;1.95;;
1402;SDS011;696;48.546;9.896;2023-07-29T01:44:13;6.07;;;1.70;;
1402;SDS011;696;48.546;9.896;2023-07-29T01:46:39;3.60;;;1.63;;
1402;SDS011;696;48.546;9.896;2023-07-29T01:49:04;1.45;;;1.35;;
1402;SDS011;696;48.546;9.896;2023-07-29T01:51:30;6.30;;;1.80;;
1402;SDS011;696;48.546;9.896;2023-07-29T01:53:55;2.50;;;1.52;;
1402;SDS011;696;48.546;9.896;2023-07-29T01:56:21;3.15;;;1.70;;
1402;SDS011;696;48.546;9.896;2023-07-29T01:58:46;5.78;;;1.83;;
1402;SDS011;696;48.546;9.896;2023-07-29T02:01:12;3.47;;;1.77;;
1402;SDS011;696;48.546;9.896;2023-07-29T02:03:37;1.55;;;1.40;;
1402;SDS011;696;48.546;9.896;2023-07-29T02:06:02;1.15;;;1.05;;
1402;SDS011;696;48.546;9.896;2023-07-29T02:08:28;5.35;;;1.80;;
1402;SDS011;696;48.546;9.896;2023-07-29T02:10:53;4.43;;;1.50;;
1402;SDS011;696;48.546;9.896;2023-07-29T02:13:18;5.65;;;1.42;;
1402;SDS011;696;48.546;9.896;2023-07-29T02:15:44;3.08;;;1.38;;
1402;SDS011;696;48.546;9.896;2023-07-29T02:18:09;5.10;;;1.77;;
1402;SDS011;696;48.546;9.896;2023-07-29T02:20:34;3.58;;;1.35;;
1402;SDS011;696;48.546;9.896;2023-07-29T02:23:00;1.40;;;1.30;;
1402;SDS011;696;48.546;9.896;2023-07-29T02:25:25;3.10;;;1.30;;
1402;SDS011;696;48.546;9.896;2023-07-29T02:27:51;1.75;;;1.15;;
1402;SDS011;696;48.546;9.896;2023-07-29T02:30:16;4.22;;;1.70;;
1402;SDS011;696;48.546;9.896;2023-07-29T02:32:41;6.70;;;1.58;;
1402;SDS011;696;48.546;9.896;2023-07-29T02:35:07;3.25;;;1.63;;
1402;SDS011;696;48.546;9.896;2023-07-29T02:37:32;4.05;;;1.52;;
1402;SDS011;696;48.546;9.896;2023-07-29T02:39:58;1.98;;;1.10;;
1402;SDS011;696;48.546;9.896;2023-07-29T02:42:23;2.17;;;1.45;;
1402;SDS011;696;48.546;9.896;2023-07-29T02:44:48;2.10;;;1.25;;
1402;SDS011;696;48.546;9.896;2023-07-29T02:47:14;3.65;;;1.50;;
1402;SDS011;696;48.546;9.896;2023-07-29T02:49:39;1.67;;;1.23;;
1402;SDS011;696;48.546;9.896;2023-07-29T02:52:04;4.13;;;1.70;;
1402;SDS011;696;48.546;9.896;2023-07-29T02:54:30;2.80;;;1.70;;
1402;SDS011;696;48.546;9.896;2023-07-29T02:56:55;3.45;;;1.30;;
1402;SDS011;696;48.546;9.896;2023-07-29T02:59:20;3.13;;;1.77;;
1402;SDS011;696;48.546;9.896;2023-07-29T03:01:46;5.95;;;1.67;;
1402;SDS011;696;48.546;9.896;2023-07-29T03:04:11;1.90;;;1.23;;
1402;SDS011;696;48.546;9.896;2023-07-29T03:06:38;3.03;;;1.52;;
1402;SDS011;696;48.546;9.896;2023-07-29T03:09:03;3.13;;;1.17;;
1402;SDS011;696;48.546;9.896;2023-07-29T03:11:29;1.70;;;1.55;;
1402;SDS011;696;48.546;9.896;2023-07-29T03:13:56;3.17;;;1.42;;
1402;SDS011;696;48.546;9.896;2023-07-29T03:16:21;5.65;;;1.25;;
1402;SDS011;696;48.546;9.896;2023-07-29T03:18:48;4.45;;;1.50;;
1402;SDS011;696;48.546;9.896;2023-07-29T03:21:13;6.60;;;1.50;;
1402;SDS011;696;48.546;9.896;2023-07-29T03:23:39;2.63;;;1.33;;
1402;SDS011;696;48.546;9.896;2023-07-29T03:26:04;2.17;;;1.48;;
1402;SDS011;696;48.546;9.896;2023-07-29T03:28:35;5.18;;;1.58;;
1402;SDS011;696;48.546;9.896;2023-07-29T03:31:02;4.43;;;2.08;;
1402;SDS011;696;48.546;9.896;2023-07-29T03:33:28;6.20;;;1.38;;
1402;SDS011;696;48.546;9.896;2023-07-29T03:35:53;11.15;;;1.63;;
1402;SDS011;696;48.546;9.896;2023-07-29T03:38:18;3.70;;;1.92;;
1402;SDS011;696;48.546;9.896;2023-07-29T03:40:44;7.18;;;2.17;;
1402;SDS011;696;48.546;9.896;2023-07-29T03:43:09;4.78;;;1.95;;
1402;SDS011;696;48.546;9.896;2023-07-29T03:45:35;12.18;;;2.03;;
1402;SDS011;696;48.546;9.896;2023-07-29T03:48:01;2.63;;;1.92;;
1402;SDS011;696;48.546;9.896;2023-07-29T03:50:27;2.97;;;2.22;;
1402;SDS011;696;48.546;9.896;2023-07-29T03:52:53;4.07;;;1.80;;
1402;SDS011;696;48.546;9.896;2023-07-29T03:55:18;6.72;;;1.70;;
1402;SDS011;696;48.546;9.896;2023-07-29T03:57:44;3.88;;;1.85;;
1402;SDS011;696;48.546;9.896;2023-07-29T04:00:09;7.18;;;2.05;;
1402;SDS011;696;48.546;9.896;2023-07-29T04:02:35;4.15;;;2.10;;
1402;SDS011;696;48.546;9.896;2023-07-29T04:05:03;4.68;;;2.28;;
1402;SDS011;696;48.546;9.896;2023-07-29T04:07:28;10.48;;;2.17;;
1402;SDS011;696;48.546;9.896;2023-07-29T04:09:54;5.30;;;1.83;;
1402;SDS011;696;48.546;9.896;2023-07-29T04:12:19;3.60;;;1.63;;
1402;SDS011;696;48.546;9.896;2023-07-29T04:14:46;2.80;;;1.75;;
1402;SDS011;696;48.546;9.896;2023-07-29T04:17:11;3.90;;;2.13;;
1402;SDS011;696;48.546;9.896;2023-07-29T04:19:37;3.95;;;1.92;;
1402;SDS011;696;48.546;9.896;2023-07-29T04:22:02;3.17;;;2.22;;
1402;SDS011;696;48.546;9.896;2023-07-29T04:24:28;4.22;;;2.20;;
1402;SDS011;696;48.546;9.896;2023-07-29T04:26:53;5.47;;;2.63;;
1402;SDS011;696;48.546;9.896;2023-07-29T04:29:19;3.85;;;2.15;;
1402;SDS011;696;48.546;9.896;2023-07-29T04:31:44;4.22;;;2.20;;
1402;SDS011;696;48.546;9.896;2023-07-29T04:34:09;7.80;;;2.60;;
1402;SDS011;696;48.546;9.896;2023-07-29T04:36:34;4.20;;;2.50;;
1402;SDS011;696;48.546;9.896;2023-07-29T04:39:00;5.70;;;2.88;;
1402;SDS011;696;48.546;9.896;2023-07-29T04:41:25;3.35;;;2.15;;
1402;SDS011;696;48.546;9.896;2023-07-29T04:43:51;6.60;;;2.08;;
1402;SDS011;696;48.546;9.896;2023-07-29T04:46:17;6.30;;;2.45;;
1402;SDS011;696;48.546;9.896;2023-07-29T04:48:42;4.43;;;2.75;;
1402;SDS011;696;48.546;9.896;2023-07-29T04:51:08;4.93;;;2.78;;
1402;SDS011;696;48.546;9.896;2023-07-29T04:53:33;12.27;;;3.38;;
1402;SDS011;696;48.546;9.896;2023-07-29T04:56:01;6.88;;;2.67;;
1402;SDS011;696;48.546;9.896;2023-07-29T04:58:27;3.28;;;2.20;;
1402;SDS011;696;48.546;9.896;2023-07-29T05:00:54;7.45;;;2.90;;
1402;SDS011;696;48.546;9.896;2023-07-29T05:03:20;8.77;;;3.35;;
1402;SDS011;696;48.546;9.896;2023-07-29T05:05:45;13.43;;;3.00;;
1402;SDS011;696;48.546;9.896;2023-07-29T05:08:10;10.63;;;3.05;;
1402;SDS011;696;48.546;9.896;2023-07-29T05:10:36;8.30;;;2.63;;
1402;SDS011;696;48.546;9.896;2023-07-29T05:13:01;4.07;;;2.65;;
1402;SDS011;696;48.546;9.896;2023-07-29T05:15:26;4.55;;;2.85;;
1402;SDS011;696;48.546;9.896;2023-07-29T05:17:52;5.28;;;2.42;;
1402;SDS011;696;48.546;9.896;2023-07-29T05:20:17;4.28;;;2.78;;
1402;SDS011;696;48.546;9.896;2023-07-29T05:22:42;3.35;;;2.67;;
1402;SDS011;696;48.546;9.896;2023-07-29T05:25:08;6.30;;;3.13;;
1402;SDS011;696;48.546;9.896;2023-07-29T05:27:33;7.63;;;3.03;;
1402;SDS011;696;48.546;9.896;2023-07-29T05:29:58;6.75;;;3.03;;
1402;SDS011;696;48.546;9.896;2023-07-29T05:32:24;5.85;;;3.10;;
1402;SDS011;696;48.546;9.896;2023-07-29T05:34:49;4.47;;;2.78;;
1402;SDS011;696;48.546;9.896;2023-07-29T05:37:14;8.95;;;3.75;;
1402;SDS011;696;48.546;9.896;2023-07-29T05:39:40;3.65;;;2.83;;
1402;SDS011;696;48.546;9.896;2023-07-29T05:42:05;4.25;;;3.17;;
1402;SDS011;696;48.546;9.896;2023-07-29T05:44:31;6.07;;;3.22;;
1402;SDS011;696;48.546;9.896;2023-07-29T05:46:56;3.70;;;2.60;;
1402;SDS011;696;48.546;9.896;2023-07-29T05:49:22;4.63;;;2.65;;
1402;SDS011;696;48.546;9.896;2023-07-29T05:51:47;4.25;;;2.67;;
1402;SDS011;696;48.546;9.896;2023-07-29T05:54:13;6.47;;;2.65;;
1402;SDS011;696;48.546;9.896;2023-07-29T05:56:38;4.40;;;2.88;;
1402;SDS011;696;48.546;9.896;2023-07-29T05:59:04;4.25;;;2.75;;
1402;SDS011;696;48.546;9.896;2023-07-29T06:01:29;4.65;;;2.63;;
1402;SDS011;696;48.546;9.896;2023-07-29T06:03:54;5.65;;;2.80;;
1402;SDS011;696;48.546;9.896;2023-07-29T06:06:20;5.78;;;2.95;;
1402;SDS011;696;48.546;9.896;2023-07-29T06:08:45;6.20;;;3.30;;
1402;SDS011;696;48.546;9.896;2023-07-29T06:11:11;6.13;;;3.38;;
1402;SDS011;696;48.546;9.896;2023-07-29T06:13:36;5.32;;;2.88;;
1402;SDS011;696;48.546;9.896;2023-07-29T06:16:01;11.40;;;3.22;;
1402;SDS011;696;48.546;9.896;2023-07-29T06:18:27;4.53;;;2.75;;
1402;SDS011;696;48.546;9.896;2023-07-29T06:20:52;3.50;;;2.45;;
1402;SDS011;696;48.546;9.896;2023-07-29T06:23:17;4.45;;;2.47;;
1402;SDS011;696;48.546;9.896;2023-07-29T06:25:43;2.47;;;2.28;;
1402;SDS011;696;48.546;9.896;2023-07-29T06:28:09;4.32;;;1.95;;
1402;SDS011;696;48.546;9.896;2023-07-29T06:30:34;3.28;;;2.50;;
1402;SDS011;696;48.546;9.896;2023-07-29T06:32:59;2.95;;;2.47;;
1402;SDS011;696;48.546;9.896;2023-07-29T06:35:25;4.35;;;2.45;;
1402;SDS011;696;48.546;9.896;2023-07-29T06:37:50;3.67;;;2.60;;
1402;SDS011;696;48.546;9.896;2023-07-29T06:40:16;2.80;;;2.03;;
1402;SDS011;696;48.546;9.896;2023-07-29T06:42:41;5.40;;;2.60;;
1402;SDS011;696;48.546;9.896;2023-07-29T06:45:06;9.32;;;3.00;;
1402;SDS011;696;48.546;9.896;2023-07-29T06:47:32;3.20;;;2.28;;
1402;SDS011;696;48.546;9.896;2023-07-29T06:49:57;4.88;;;2.92;;
1402;SDS011;696;48.546;9.896;2023-07-29T06:52:23;4.03;;;2.80;;
1402;SDS011;696;48.546;9.896;2023-07-29T06:54:48;3.70;;;2.42;;
1402;SDS011;696;48.546;9.896;2023-07-29T06:57:13;2.83;;;2.10;;
1402;SDS011;696;48.546;9.896;2023-07-29T06:59:39;4.10;;;2.65;;
1402;SDS011;696;48.546;9.896;2023-07-29T07:02:04;2.55;;;2.10;;
1402;SDS011;696;48.546;9.896;2023-07-29T07:04:31;4.00;;;2.88;;
1402;SDS011;696;48.546;9.896;2023-07-29T07:06:56;2.58;;;1.90;;
1402;SDS011;696;48.546;9.896;2023-07-29T07:09:22;3.40;;;2.63;;
1402;SDS011;696;48.546;9.896;2023-07-29T07:11:47;3.85;;;2.33;;
1402;SDS011;696;48.546;9.896;2023-07-29T07:14:12;5.28;;;2.60;;
1402;SDS011;696;48.546;9.896;2023-07-29T07:16:38;3.20;;;2.47;;
1402;SDS011;696;48.546;9.896;2023-07-29T07:19:04;3.53;;;2.50;;
1402;SDS011;696;48.546;9.896;2023-07-29T07:21:29;2.92;;;2.38;;
1402;SDS011;696;48.546;9.896;2023-07-29T07:23:55;4.20;;;2.50;;
1402;SDS011;696;48.546;9.896;2023-07-29T07:26:20;7.88;;;2.47;;
1402;SDS011;696;48.546;9.896;2023-07-29T07:28:45;2.30;;;1.90;;
1402;SDS011;696;48.546;9.896;2023-07-29T07:31:11;4.07;;;2.28;;
1402;SDS011;696;48.546;9.896;2023-07-29T07:33:36;2.80;;;2.25;;
1402;SDS011;696;48.546;9.896;2023-07-29T07:36:02;3.20;;;2.50;;
1402;SDS011;696;48.546;9.896;2023-07-29T07:38:27;3.38;;;2.60;;
1402;SDS011;696;48.546;9.896;2023-07-29T07:40:53;3.03;;;2.60;;
1402;SDS011;696;48.546;9.896;2023-07-29T07:43:20;2.78;;;2.20;;
1402;SDS011;696;48.546;9.896;2023-07-29T07:45:45;4.47;;;2.17;;
1402;SDS011;696;48.546;9.896;2023-07-29T07:48:11;6.22;;;2.40;;
1402;SDS011;696;48.546;9.896;2023-07-29T07:50:38;3.90;;;2.25;;
1402;SDS011;696;48.546;9.896;2023-07-29T07:53:03;3.83;;;2.60;;
1402;SDS011;696;48.546;9.896;2023-07-29T07:55:29;5.05;;;2.50;;
1402;SDS011;696;48.546;9.896;2023-07-29T07:57:54;3.42;;;2.72;;
1402;SDS011;696;48.546;9.896;2023-07-29T08:00:20;4.32;;;2.40;;
1402;SDS011;696;48.546;9.896;2023-07-29T08:02:45;2.88;;;2.42;;
1402;SDS011;696;48.546;9.896;2023-07-29T08:05:10;5.90;;;2.33;;
1402;SDS011;696;48.546;9.896;2023-07-29T08:07:36;3.45;;;2.38;;
1402;SDS011;696;48.546;9.896;2023-07-29T08:10:01;3.33;;;2.08;;
1402;SDS011;696;48.546;9.896;2023-07-29T08:12:27;3.20;;;2.20;;
1402;SDS011;696;48.546;9.896;2023-07-29T08:14:52;1.83;;;1.63;;
1402;SDS011;696;48.546;9.896;2023-07-29T08:17:17;2.35;;;2.10;;
1402;SDS011;696;48.546;9.896;2023-07-29T08:19:43;2.97;;;2.10;;
1402;SDS011;696;48.546;9.896;2023-07-29T08:22:09;3.67;;;1.90;;
1402;SDS011;696;48.546;9.896;2023-07-29T08:24:34;3.03;;;1.70;;
1402;SDS011;696;48.546;9.896;2023-07-29T08:26:59;4.18;;;2.05;;
1402;SDS011;696;48.546;9.896;2023-07-29T08:29:25;2.03;;;1.75;;
1402;SDS011;696;48.546;9.896;2023-07-29T08:31:50;2.80;;;1.85;;
1402;SDS011;696;48.546;9.896;2023-07-29T08:34:16;2.13;;;1.85;;
1402;SDS011;696;48.546;9.896;2023-07-29T08:36:42;1.77;;;1.55;;
1402;SDS011;696;48.546;9.896;2023-07-29T08:39:07;1.40;;;1.30;;
1402;SDS011;696;48.546;9.896;2023-07-29T08:41:35;2.13;;;1.50;;
1402;SDS011;696;48.546;9.896;2023-07-29T08:44:09;3.33;;;1.70;;
1402;SDS011;696;48.546;9.896;2023-07-29T08:46:37;2.53;;;1.58;;
1402;SDS011;696;48.546;9.896;2023-07-29T08:49:03;1.98;;;1.45;;
1402;SDS011;696;48.546;9.896;2023-07-29T08:51:29;1.52;;;1.40;;
1402;SDS011;696;48.546;9.896;2023-07-29T08:53:56;4.43;;;1.45;;
1402;SDS011;696;48.546;9.896;2023-07-29T08:56:22;1.90;;;1.50;;
1402;SDS011;696;48.546;9.896;2023-07-29T08:58:47;1.98;;;1.45;;
1402;SDS011;696;48.546;9.896;2023-07-29T09:01:13;3.15;;;1.50;;
1402;SDS011;696;48.546;9.896;2023-07-29T09:03:40;2.42;;;1.23;;
1402;SDS011;696;48.546;9.896;2023-07-29T09:06:06;1.52;;;1.27;;
1402;SDS011;696;48.546;9.896;2023-07-29T09:08:32;1.48;;;1.38;;
1402;SDS011;696;48.546;9.896;2023-07-29T09:10:59;1.20;;;1.10;;
1402;SDS011;696;48.546;9.896;2023-07-29T09:13:24;1.33;;;0.90;;
1402;SDS011;696;48.546;9.896;2023-07-29T09:15:53;3.55;;;1.15;;
1402;SDS011;696;48.546;9.896;2023-07-29T09:18:19;1.30;;;1.20;;
1402;SDS011;696;48.546;9.896;2023-07-29T09:20:48;2.72;;;1.58;;
1402;SDS011;696;48.546;9.896;2023-07-29T09:23:14;1.48;;;0.90;;
1402;SDS011;696;48.546;9.896;2023-07-29T09:25:40;1.48;;;1.10;;
1402;SDS011;696;48.546;9.896;2023-07-29T09:28:10;2.03;;;1.50;;
1402;SDS011;696;48.546;9.896;2023-07-29T09:30:39;3.15;;;1.30;;
1402;SDS011;696;48.546;9.896;2023-07-29T09:33:06;4.05;;;1.45;;
1402;SDS011;696;48.546;9.896;2023-07-29T09:35:32;1.73;;;1.40;;
1402;SDS011;696;48.546;9.896;2023-07-29T09:37:58;1.85;;;1.20;;
1402;SDS011;696;48.546;9.896;2023-07-29T09:40:24;1.38;;;1.27;;
1402;SDS011;696;48.546;9.896;2023-07-29T09:42:49;2.05;;;1.33;;
1402;SDS011;696;48.546;9.896;2023-07-29T09:45:20;3.00;;;1.85;;
1402;SDS011;696;48.546;9.896;2023-07-29T09:47:52;1.60;;;1.30;;
1402;SDS011;696;48.546;9.896;2023-07-29T09:50:18;2.28;;;1.33;;
1402;SDS011;696;48.546;9.896;2023-07-29T09:52:44;1.38;;;1.25;;
1402;SDS011;696;48.546;9.896;2023-07-29T09:55:11;2.78;;;1.35;;
1402;SDS011;696;48.546;9.896;2023-07-29T09:57:37;1.60;;;1.40;;
1402;SDS011;696;48.546;9.896;2023-07-29T10:00:04;1.88;;;1.40;;
1402;SDS011;696;48.546;9.896;2023-07-29T10:02:35;4.00;;;1.40;;
1402;SDS011;696;48.546;9.896;2023-07-29T10:05:01;1.40;;;1.30;;
1402;SDS011;696;48.546;9.896;2023-07-29T10:07:28;2.10;;;1.50;;
1402;SDS011;696;48.546;9.896;2023-07-29T10:09:54;1.30;;;1.20;;
1402;SDS011;696;48.546;9.896;2023-07-29T10:12:19;1.67;;;1.50;;
1402;SDS011;696;48.546;9.896;2023-07-29T10:14:45;3.40;;;1.77;;
1402;SDS011;696;48.546;9.896;2023-07-29T10:17:13;3.15;;;1.40;;
1402;SDS011;696;48.546;9.896;2023-07-29T10:19:40;2.20;;;1.60;;
1402;SDS011;696;48.546;9.896;2023-07-29T10:22:07;2.92;;;1.60;;
1402;SDS011;696;48.546;9.896;2023-07-29T10:24:33;1.55;;;1.40;;
1402;SDS011;696;48.546;9.896;2023-07-29T10:27:00;2.42;;;1.63;;
1402;SDS011;696;48.546;9.896;2023-07-29T10:29:32;1.98;;;1.65;;
1402;SDS011;696;48.546;9.896;2023-07-29T10:32:02;2.55;;;1.60;;
1402;SDS011;696;48.546;9.896;2023-07-29T10:34:29;10.82;;;1.83;;
1402;SDS011;696;48.546;9.896;2023-07-29T10:36:55;8.68;;;1.60;;
1402;SDS011;696;48.546;9.896;2023-07-29T10:39:21;2.88;;;1.63;;
1402;SDS011;696;48.546;9.896;2023-07-29T10:49:44;2.50;;;1.27;;
1402;SDS011;696;48.546;9.896;2023-07-29T10:52:14;2.40;;;1.67;;
1402;SDS011;696;48.546;9.896;2023-07-29T10:54:42;1.73;;;1.15;;
1402;SDS011;696;48.546;9.896;2023-07-29T10:57:07;2.53;;;1.80;;
1402;SDS011;696;48.546;9.896;2023-07-29T10:59:38;4.82;;;1.75;;
1402;SDS011;696;48.546;9.896;2023-07-29T11:02:06;3.00;;;1.70;;
1402;SDS011;696;48.546;9.896;2023-07-29T11:04:45;2.17;;;1.40;;
1402;SDS011;696;48.546;9.896;2023-07-29T11:09:39;2.07;;;1.80;;
1402;SDS011;696;48.546;9.896;2023-07-29T11:12:48;2.30;;;1.67;;
1402;SDS011;696;48.546;9.896;2023-07-29T11:17:39;4.45;;;1.50;;
1402;SDS011;696;48.546;9.896;2023-07-29T11:20:06;1.75;;;1.40;;
1402;SDS011;696;48.546;9.896;2023-07-29T11:22:33;7.10;;;1.38;;
1402;SDS011;696;48.546;9.896;2023-07-29T11:24:58;5.65;;;1.80;;
1402;SDS011;696;48.546;9.896;2023-07-29T11:27:23;4.95;;;1.65;;
1402;SDS011;696;48.546;9.896;2023-07-29T11:29:49;1.75;;;1.55;;
1402;SDS011;696;48.546;9.896;2023-07-29T11:32:15;2.25;;;1.45;;
1402;SDS011;696;48.546;9.896;2023-07-29T11:34:41;2.08;;;1.52;;
1402;SDS011;696;48.546;9.896;2023-07-29T11:37:06;3.00;;;1.75;;
1402;SDS011;696;48.546;9.896;2023-07-29T11:39:32;3.00;;;1.80;;
1402;SDS011;696;48.546;9.896;2023-07-29T11:41:58;5.70;;;2.80;;
1402;SDS011;696;48.546;9.896;2023-07-29T11:44:24;2.53;;;1.52;;
1402;SDS011;696;48.546;9.896;2023-07-29T11:46:50;3.65;;;1.67;;
1402;SDS011;696;48.546;9.896;2023-07-29T11:49:15;6.80;;;2.47;;
1402;SDS011;696;48.546;9.896;2023-07-29T11:51:41;6.20;;;1.90;;
1402;SDS011;696;48.546;9.896;2023-07-29T11:54:06;1.40;;;1.10;;
1402;SDS011;696;48.546;9.896;2023-07-29T11:56:32;2.45;;;1.38;;
1402;SDS011;696;48.546;9.896;2023-07-29T11:58:57;2.35;;;1.45;;
1402;SDS011;696;48.546;9.896;2023-07-29T12:01:23;1.67;;;1.15;;
1402;SDS011;696;48.546;9.896;2023-07-29T12:03:49;1.95;;;1.30;;
1402;SDS011;696;48.546;9.896;2023-07-29T12:06:15;2.08;;;1.40;;
1402;SDS011;696;48.546;9.896;2023-07-29T12:08:41;1.83;;;1.45;;
1402;SDS011;696;48.546;9.896;2023-07-29T12:11:06;1.20;;;1.08;;
1402;SDS011;696;48.546;9.896;2023-07-29T12:13:32;2.15;;;1.23;;
1402;SDS011;696;48.546;9.896;2023-07-29T12:16:01;1.52;;;1.10;;
1402;SDS011;696;48.546;9.896;2023-07-29T12:18:30;2.88;;;1.17;;
1402;SDS011;696;48.546;9.896;2023-07-29T12:20:56;6.25;;;1.45;;
1402;SDS011;696;48.546;9.896;2023-07-29T12:23:25;1.42;;;1.30;;
1402;SDS011;696;48.546;9.896;2023-07-29T12:25:57;1.10;;;1.00;;
1402;SDS011;696;48.546;9.896;2023-07-29T12:28:23;2.27;;;1.50;;
1402;SDS011;696;48.546;9.896;2023-07-29T12:30:53;1.33;;;1.10;;
1402;SDS011;696;48.546;9.896;2023-07-29T12:36:04;2.17;;;1.40;;
1402;SDS011;696;48.546;9.896;2023-07-29T12:38:29;2.28;;;1.20;;
1402;SDS011;696;48.546;9.896;2023-07-29T12:40:55;2.05;;;1.35;;
1402;SDS011;696;48.546;9.896;2023-07-29T12:43:21;2.63;;;1.33;;
1402;SDS011;696;48.546;9.896;2023-07-29T12:45:46;4.78;;;1.30;;
1402;SDS011;696;48.546;9.896;2023-07-29T12:48:11;1.50;;;1.20;;
1402;SDS011;696;48.546;9.896;2023-07-29T12:50:37;2.03;;;1.35;;
1402;SDS011;696;48.546;9.896;2023-07-29T12:53:05;2.70;;;1.27;;
1402;SDS011;696;48.546;9.896;2023-07-29T12:55:31;2.47;;;1.15;;
1402;SDS011;696;48.546;9.896;2023-07-29T12:57:56;2.83;;;1.08;;
1402;SDS011;696;48.546;9.896;2023-07-29T13:00:23;1.30;;;1.20;;
1402;SDS011;696;48.546;9.896;2023-07-29T13:02:48;5.13;;;1.70;;
1402;SDS011;696;48.546;9.896;2023-07-29T13:05:14;1.50;;;0.90;;
1402;SDS011;696;48.546;9.896;2023-07-29T13:07:39;2.80;;;1.10;;
1402;SDS011;696;48.546;9.896;2023-07-29T13:10:05;3.20;;;1.20;;
1402;SDS011;696;48.546;9.896;2023-07-29T13:12:30;2.63;;;1.05;;
1402;SDS011;696;48.546;9.896;2023-07-29T13:14:57;1.77;;;1.20;;
1402;SDS011;696;48.546;9.896;2023-07-29T13:17:23;1.60;;;1.30;;
1402;SDS011;696;48.546;9.896;2023-07-29T13:19:48;3.65;;;1.13;;
1402;SDS011;696;48.546;9.896;2023-07-29T13:22:14;0.88;;;0.88;;
1402;SDS011;696;48.546;9.896;2023-07-29T13:24:39;0.82;;;0.82;;
1402;SDS011;696;48.546;9.896;2023-07-29T13:27:04;2.35;;;1.20;;
1402;SDS011;696;48.546;9.896;2023-07-29T13:29:30;9.75;;;1.30;;
1402;SDS011;696;48.546;9.896;2023-07-29T13:31:55;1.48;;;1.15;;
1402;SDS011;696;48.546;9.896;2023-07-29T13:34:21;1.35;;;1.15;;
1402;SDS011;696;48.546;9.896;2023-07-29T13:36:46;1.55;;;1.30;;
1402;SDS011;696;48.546;9.896;2023-07-29T13:39:12;2.05;;;1.20;;
1402;SDS011;696;48.546;9.896;2023-07-29T13:41:37;1.55;;;1.17;;
1402;SDS011;696;48.546;9.896;2023-07-29T13:44:02;1.40;;;1.10;;
1402;SDS011;696;48.546;9.896;2023-07-29T13:46:28;3.92;;;1.33;;
1402;SDS011;696;48.546;9.896;2023-07-29T13:48:53;2.28;;;1.33;;
1402;SDS011;696;48.546;9.896;2023-07-29T13:51:18;1.50;;;1.40;;
1402;SDS011;696;48.546;9.896;2023-07-29T13:53:44;2.28;;;1.75;;
1402;SDS011;696;48.546;9.896;2023-07-29T13:56:09;2.80;;;1.58;;
1402;SDS011;696;48.546;9.896;2023-07-29T13:58:34;3.33;;;1.60;;
1402;SDS011;696;48.546;9.896;2023-07-29T14:01:00;7.15;;;2.30;;
1402;SDS011;696;48.546;9.896;2023-07-29T14:03:25;3.38;;;1.98;;
1402;SDS011;696;48.546;9.896;2023-07-29T14:05:50;3.38;;;1.52;;
1402;SDS011;696;48.546;9.896;2023-07-29T14:08:16;3.10;;;1.70;;
1402;SDS011;696;48.546;9.896;2023-07-29T14:10:41;2.22;;;1.65;;
1402;SDS011;696;48.546;9.896;2023-07-29T14:13:06;1.98;;;1.55;;
1402;SDS011;696;48.546;9.896;2023-07-29T14:15:32;3.80;;;1.65;;
1402;SDS011;696;48.546;9.896;2023-07-29T14:17:57;1.60;;;1.40;;
1402;SDS011;696;48.546;9.896;2023-07-29T14:20:23;1.40;;;1.05;;
1402;SDS011;696;48.546;9.896;2023-07-29T14:22:48;2.10;;;1.38;;
1402;SDS011;696;48.546;9.896;2023-07-29T14:25:14;3.85;;;1.73;;
1402;SDS011;696;48.546;9.896;2023-07-29T14:27:39;1.55;;;1.38;;
1402;SDS011;696;48.546;9.896;2023-07-29T14:30:05;1.70;;;1.30;;
1402;SDS011;696;48.546;9.896;2023-07-29T14:32:31;1.30;;;1.10;;
1402;SDS011;696;48.546;9.896;2023-07-29T14:34:56;2.17;;;1.48;;
1402;SDS011;696;48.546;9.896;2023-07-29T14:37:21;2.20;;;1.08;;
1402;SDS011;696;48.546;9.896;2023-07-29T14:39:47;1.48;;;1.10;;
1402;SDS011;696;48.546;9.896;2023-07-29T14:42:12;5.00;;;1.30;;
1402;SDS011;696;48.546;9.896;2023-07-29T14:44:39;1.90;;;1.20;;
1402;SDS011;696;48.546;9.896;2023-07-29T14:47:05;1.58;;;1.20;;
1402;SDS011;696;48.546;9.896;2023-07-29T14:49:31;1.55;;;1.42;;
1402;SDS011;696;48.546;9.896;2023-07-29T14:51:56;1.83;;;1.30;;
1402;SDS011;696;48.546;9.896;2023-07-29T14:54:21;2.03;;;1.40;;
1402;SDS011;696;48.546;9.896;2023-07-29T14:56:47;1.77;;;1.20;;
1402;SDS011;696;48.546;9.896;2023-07-29T14:59:12;1.85;;;1.13;;
1402;SDS011;696;48.546;9.896;2023-07-29T15:01:37;3.53;;;1.40;;
1402;SDS011;696;48.546;9.896;2023-07-29T15:04:03;2.72;;;1.52;;
1402;SDS011;696;48.546;9.896;2023-07-29T15:06:29;1.40;;;0.93;;
1402;SDS011;696;48.546;9.896;2023-07-29T15:08:55;2.40;;;1.17;;
1402;SDS011;696;48.546;9.896;2023-07-29T15:11:20;1.27;;;1.10;;
1402;SDS011;696;48.546;9.896;2023-07-29T15:13:45;1.20;;;0.93;;
1402;SDS011;696;48.546;9.896;2023-07-29T15:16:11;1.52;;;1.17;;
1402;SDS011;696;48.546;9.896;2023-07-29T15:18:36;1.42;;;0.85;;
1402;SDS011;696;48.546;9.896;2023-07-29T15:21:02;2.53;;;1.30;;
1402;SDS011;696;48.546;9.896;2023-07-29T15:23:28;4.03;;;1.30;;
1402;SDS011;696;48.546;9.896;2023-07-29T15:25:53;2.25;;;1.17;;
1402;SDS011;696;48.546;9.896;2023-07-29T15:28:19;1.52;;;1.40;;
1402;SDS011;696;48.546;9.896;2023-07-29T15:30:44;3.42;;;1.17;;
1402;SDS011;696;48.546;9.896;2023-07-29T15:33:09;2.28;;;1.25;;
1402;SDS011;696;48.546;9.896;2023-07-29T15:35:38;1.35;;;1.00;;
1402;SDS011;696;48.546;9.896;2023-07-29T15:38:04;2.38;;;1.20;;
1402;SDS011;696;48.546;9.896;2023-07-29T15:40:30;4.68;;;1.30;;